sensor_id;sensor_type;location;lat;lon;timestamp;pressure;altitude;pressure_sealevel;temperature;humidity
54361;BME280;40258;53.936;27.540;2022-10-16T00:01:47;99772.97;;;10.29;81.85
54361;BME280;40258;53.936;27.540;2022-10-16T00:04:15;99784.13;;;10.28;81.91
54361;BME280;40258;53.936;27.540;2022-10-16T00:06:45;99780.63;;;10.27;81.93
54361;BME280;40258;53.936;27.540;2022-10-16T00:09:13;99775.81;;;10.24;81.81
54361;BME280;40258;53.936;27.540;2022-10-16T00:11:42;99779.00;;;10.26;82.05
54361;BME280;40258;53.936;27.540;2022-10-16T00:14:14;99773.78;;;10.30;81.27
54361;BME280;40258;53.936;27.540;2022-10-16T00:16:42;99776.78;;;10.28;81.74
54361;BME280;40258;53.936;27.540;2022-10-16T00:19:11;99777.81;;;10.32;81.72
54361;BME280;40258;53.936;27.540;2022-10-16T00:21:40;99778.03;;;10.36;81.46
54361;BME280;40258;53.936;27.540;2022-10-16T00:24:29;99773.47;;;10.31;81.58
54361;BME280;40258;53.936;27.540;2022-10-16T00:26:58;99765.34;;;10.31;81.54
54361;BME280;40258;53.936;27.540;2022-10-16T00:29:26;99773.59;;;10.26;82.33
54361;BME280;40258;53.936;27.540;2022-10-16T00:31:54;99779.31;;;10.24;81.83
54361;BME280;40258;53.936;27.540;2022-10-16T00:34:23;99776.59;;;10.24;82.04
54361;BME280;40258;53.936;27.540;2022-10-16T00:36:51;99775.19;;;10.27;81.85
54361;BME280;40258;53.936;27.540;2022-10-16T00:39:20;99779.50;;;10.28;82.07
54361;BME280;40258;53.936;27.540;2022-10-16T00:41:50;99783.63;;;10.25;81.64
54361;BME280;40258;53.936;27.540;2022-10-16T00:44:44;99773.88;;;10.24;82.06
54361;BME280;40258;53.936;27.540;2022-10-16T00:47:19;99773.59;;;10.26;81.54
54361;BME280;40258;53.936;27.540;2022-10-16T00:49:51;99774.19;;;10.23;81.60
54361;BME280;40258;53.936;27.540;2022-10-16T00:52:21;99770.38;;;10.24;81.71
54361;BME280;40258;53.936;27.540;2022-10-16T00:54:50;99764.97;;;10.24;81.66
54361;BME280;40258;53.936;27.540;2022-10-16T00:57:22;99780.63;;;10.27;81.29
54361;BME280;40258;53.936;27.540;2022-10-16T00:59:51;99777.41;;;10.25;81.53
54361;BME280;40258;53.936;27.540;2022-10-16T01:02:20;99770.16;;;10.20;81.95
54361;BME280;40258;53.936;27.540;2022-10-16T01:04:51;99774.78;;;10.20;81.96
54361;BME280;40258;53.936;27.540;2022-10-16T01:07:31;99781.41;;;10.14;82.33
54361;BME280;40258;53.936;27.540;2022-10-16T01:10:10;99781.41;;;10.14;81.81
54361;BME280;40258;53.936;27.540;2022-10-16T01:12:48;99783.03;;;10.15;81.52
54361;BME280;40258;53.936;27.540;2022-10-16T01:15:24;99784.25;;;10.08;81.90
54361;BME280;40258;53.936;27.540;2022-10-16T01:18:00;99782.63;;;10.07;81.79
54361;BME280;40258;53.936;27.540;2022-10-16T01:20:32;99772.50;;;9.99;82.46
54361;BME280;40258;53.936;27.540;2022-10-16T01:23:34;99790.66;;;9.85;82.63
54361;BME280;40258;53.936;27.540;2022-10-16T01:26:26;99782.59;;;9.80;82.96
54361;BME280;40258;53.936;27.540;2022-10-16T01:29:06;99791.03;;;9.78;83.17
54361;BME280;40258;53.936;27.540;2022-10-16T01:31:39;99788.63;;;9.77;83.97
54361;BME280;40258;53.936;27.540;2022-10-16T01:34:15;99789.44;;;9.77;83.57
54361;BME280;40258;53.936;27.540;2022-10-16T01:36:50;99797.88;;;9.76;84.03
54361;BME280;40258;53.936;27.540;2022-10-16T01:39:22;99798.47;;;9.73;84.10
54361;BME280;40258;53.936;27.540;2022-10-16T01:42:05;99797.88;;;9.76;83.58
54361;BME280;40258;53.936;27.540;2022-10-16T01:44:37;99794.44;;;9.70;84.20
54361;BME280;40258;53.936;27.540;2022-10-16T01:47:08;99795.22;;;9.70;84.20
54361;BME280;40258;53.936;27.540;2022-10-16T01:49:39;99800.66;;;9.70;84.18
54361;BME280;40258;53.936;27.540;2022-10-16T01:52:13;99782.81;;;9.69;83.93
54361;BME280;40258;53.936;27.540;2022-10-16T01:54:47;99800.66;;;9.70;84.29
54361;BME280;40258;53.936;27.540;2022-10-16T01:57:17;99807.50;;;9.68;84.53
54361;BME280;40258;53.936;27.540;2022-10-16T01:59:54;99806.66;;;9.67;84.50
54361;BME280;40258;53.936;27.540;2022-10-16T02:02:27;99815.91;;;9.66;84.79
54361;BME280;40258;53.936;27.540;2022-10-16T02:05:02;99805.28;;;9.70;84.28
54361;BME280;40258;53.936;27.540;2022-10-16T02:07:33;99812.91;;;9.68;84.30
54361;BME280;40258;53.936;27.540;2022-10-16T02:10:01;99822.31;;;9.70;84.32
54361;BME280;40258;53.936;27.540;2022-10-16T02:12:32;99806.06;;;9.70;84.28
54361;BME280;40258;53.936;27.540;2022-10-16T02:15:07;99817.50;;;9.67;84.89
54361;BME280;40258;53.936;27.540;2022-10-16T02:17:35;99817.31;;;9.64;84.69
54361;BME280;40258;53.936;27.540;2022-10-16T02:20:05;99822.28;;;9.57;84.85
54361;BME280;40258;53.936;27.540;2022-10-16T02:22:38;99819.28;;;9.58;84.44
54361;BME280;40258;53.936;27.540;2022-10-16T02:25:10;99816.66;;;9.53;84.90
54361;BME280;40258;53.936;27.540;2022-10-16T02:27:49;99821.06;;;9.49;84.85
54361;BME280;40258;53.936;27.540;2022-10-16T02:30:33;99815.44;;;9.45;85.41
54361;BME280;40258;53.936;27.540;2022-10-16T02:33:06;99822.28;;;9.43;85.48
54361;BME280;40258;53.936;27.540;2022-10-16T02:35:36;99815.81;;;9.39;85.67
54361;BME280;40258;53.936;27.540;2022-10-16T02:38:06;99817.00;;;9.32;85.94
54361;BME280;40258;53.936;27.540;2022-10-16T02:40:37;99819.22;;;9.30;86.17
54361;BME280;40258;53.936;27.540;2022-10-16T02:43:06;99824.63;;;9.30;86.36
54361;BME280;40258;53.936;27.540;2022-10-16T02:45:36;99826.31;;;9.26;86.67
54361;BME280;40258;53.936;27.540;2022-10-16T02:48:05;99821.78;;;9.22;86.83
54361;BME280;40258;53.936;27.540;2022-10-16T02:50:34;99832.31;;;9.23;86.55
54361;BME280;40258;53.936;27.540;2022-10-16T02:53:03;99824.78;;;9.20;86.44
54361;BME280;40258;53.936;27.540;2022-10-16T02:55:31;99826.41;;;9.21;86.75
54361;BME280;40258;53.936;27.540;2022-10-16T02:57:59;99833.47;;;9.17;86.72
54361;BME280;40258;53.936;27.540;2022-10-16T03:00:28;99839.41;;;9.19;87.15
54361;BME280;40258;53.936;27.540;2022-10-16T03:02:58;99834.00;;;9.19;86.92
54361;BME280;40258;53.936;27.540;2022-10-16T03:05:27;99842.19;;;9.14;87.11
54361;BME280;40258;53.936;27.540;2022-10-16T03:07:55;99829.75;;;9.13;86.85
54361;BME280;40258;53.936;27.540;2022-10-16T03:10:27;99839.00;;;9.12;87.20
54361;BME280;40258;53.936;27.540;2022-10-16T03:12:55;99833.13;;;9.05;87.25
54361;BME280;40258;53.936;27.540;2022-10-16T03:15:24;99839.56;;;9.09;87.19
54361;BME280;40258;53.936;27.540;2022-10-16T03:17:53;99835.31;;;9.03;87.61
54361;BME280;40258;53.936;27.540;2022-10-16T03:20:23;99838.31;;;9.01;87.36
54361;BME280;40258;53.936;27.540;2022-10-16T03:22:51;99828.97;;;8.93;87.76
54361;BME280;40258;53.936;27.540;2022-10-16T03:25:20;99834.09;;;8.95;87.74
54361;BME280;40258;53.936;27.540;2022-10-16T03:27:48;99841.44;;;8.89;87.91
54361;BME280;40258;53.936;27.540;2022-10-16T03:30:17;99848.56;;;8.85;88.36
54361;BME280;40258;53.936;27.540;2022-10-16T03:32:45;99844.25;;;8.84;88.33
54361;BME280;40258;53.936;27.540;2022-10-16T03:35:14;99846.44;;;8.82;88.63
54361;BME280;40258;53.936;27.540;2022-10-16T03:37:44;99856.44;;;8.81;88.47
54361;BME280;40258;53.936;27.540;2022-10-16T03:40:13;99855.19;;;8.74;88.42
54361;BME280;40258;53.936;27.540;2022-10-16T03:42:42;99854.69;;;8.72;88.99
54361;BME280;40258;53.936;27.540;2022-10-16T03:45:11;99859.00;;;8.73;88.66
54361;BME280;40258;53.936;27.540;2022-10-16T03:47:40;99863.38;;;8.69;88.88
54361;BME280;40258;53.936;27.540;2022-10-16T03:50:09;99866.00;;;8.74;88.44
54361;BME280;40258;53.936;27.540;2022-10-16T03:52:37;99861.19;;;8.71;88.64
54361;BME280;40258;53.936;27.540;2022-10-16T03:55:08;99861.19;;;8.71;88.57
54361;BME280;40258;53.936;27.540;2022-10-16T03:57:36;99864.47;;;8.68;88.66
54361;BME280;40258;53.936;27.540;2022-10-16T04:00:06;99862.59;;;8.68;88.91
54361;BME280;40258;53.936;27.540;2022-10-16T04:02:39;99865.03;;;8.64;88.74
54361;BME280;40258;53.936;27.540;2022-10-16T04:05:08;99866.94;;;8.64;88.81
54361;BME280;40258;53.936;27.540;2022-10-16T04:07:36;99872.72;;;8.57;89.21
54361;BME280;40258;53.936;27.540;2022-10-16T04:10:08;99878.47;;;8.51;89.33
54361;BME280;40258;53.936;27.540;2022-10-16T04:12:37;99877.66;;;8.50;89.21
54361;BME280;40258;53.936;27.540;2022-10-16T04:15:06;99881.44;;;8.49;89.55
54361;BME280;40258;53.936;27.540;2022-10-16T04:17:35;99884.22;;;8.44;89.97
54361;BME280;40258;53.936;27.540;2022-10-16T04:20:05;99883.16;;;8.40;90.03
54361;BME280;40258;53.936;27.540;2022-10-16T04:22:33;99879.13;;;8.37;89.76
54361;BME280;40258;53.936;27.540;2022-10-16T04:25:02;99894.00;;;8.40;89.76
54361;BME280;40258;53.936;27.540;2022-10-16T04:27:32;99890.75;;;8.38;90.23
54361;BME280;40258;53.936;27.540;2022-10-16T04:30:01;99887.31;;;8.32;90.59
54361;BME280;40258;53.936;27.540;2022-10-16T04:32:29;99880.63;;;8.24;90.73
54361;BME280;40258;53.936;27.540;2022-10-16T04:34:58;99881.41;;;8.25;90.66
54361;BME280;40258;53.936;27.540;2022-10-16T04:37:27;99874.41;;;8.24;90.83
54361;BME280;40258;53.936;27.540;2022-10-16T04:39:55;99872.44;;;8.30;90.37
54361;BME280;40258;53.936;27.540;2022-10-16T04:42:24;99866.97;;;8.35;89.97
54361;BME280;40258;53.936;27.540;2022-10-16T04:44:54;99866.75;;;8.31;90.46
54361;BME280;40258;53.936;27.540;2022-10-16T04:47:22;99854.03;;;8.32;90.09
54361;BME280;40258;53.936;27.540;2022-10-16T04:49:51;99856.75;;;8.32;89.81
54361;BME280;40258;53.936;27.540;2022-10-16T04:52:19;99856.75;;;8.32;89.70
54361;BME280;40258;53.936;27.540;2022-10-16T04:54:48;99856.75;;;8.32;89.74
54361;BME280;40258;53.936;27.540;2022-10-16T04:57:17;99853.25;;;8.31;89.72
54361;BME280;40258;53.936;27.540;2022-10-16T04:59:46;99851.97;;;8.23;89.96
54361;BME280;40258;53.936;27.540;2022-10-16T05:02:15;99850.34;;;8.22;89.67
54361;BME280;40258;53.936;27.540;2022-10-16T05:04:44;99850.41;;;8.17;90.58
54361;BME280;40258;53.936;27.540;2022-10-16T05:07:12;99858.53;;;8.17;90.41
54361;BME280;40258;53.936;27.540;2022-10-16T05:09:40;99865.00;;;8.16;90.02
54361;BME280;40258;53.936;27.540;2022-10-16T05:12:09;99865.00;;;8.16;90.29
54361;BME280;40258;53.936;27.540;2022-10-16T05:14:38;99870.69;;;8.15;90.50
54361;BME280;40258;53.936;27.540;2022-10-16T05:17:06;99863.69;;;8.14;90.75
54361;BME280;40258;53.936;27.540;2022-10-16T05:19:36;99870.47;;;8.11;90.58
54361;BME280;40258;53.936;27.540;2022-10-16T05:22:05;99866.63;;;8.17;89.98
54361;BME280;40258;53.936;27.540;2022-10-16T05:24:34;99868.75;;;8.20;89.82
54361;BME280;40258;53.936;27.540;2022-10-16T05:27:03;99873.81;;;8.27;89.10
54361;BME280;40258;53.936;27.540;2022-10-16T05:29:31;99877.75;;;8.40;88.72
54361;BME280;40258;53.936;27.540;2022-10-16T05:31:59;99873.44;;;8.39;88.74
54361;BME280;40258;53.936;27.540;2022-10-16T05:34:28;99875.75;;;8.51;88.16
54361;BME280;40258;53.936;27.540;2022-10-16T05:36:58;99865.13;;;8.59;88.05
54361;BME280;40258;53.936;27.540;2022-10-16T05:39:27;99873.63;;;8.72;87.38
54361;BME280;40258;53.936;27.540;2022-10-16T05:41:56;99874.66;;;8.76;86.11
54361;BME280;40258;53.936;27.540;2022-10-16T05:44:24;99883.16;;;8.88;84.77
54361;BME280;40258;53.936;27.540;2022-10-16T05:46:53;99882.44;;;9.02;84.09
54361;BME280;40258;53.936;27.540;2022-10-16T05:49:21;99894.31;;;9.06;83.95
54361;BME280;40258;53.936;27.540;2022-10-16T05:51:50;99885.53;;;9.14;83.49
54361;BME280;40258;53.936;27.540;2022-10-16T05:54:20;99900.47;;;9.30;82.18
54361;BME280;40258;53.936;27.540;2022-10-16T05:56:49;99894.09;;;9.40;81.20
54361;BME280;40258;53.936;27.540;2022-10-16T05:59:17;99889.47;;;9.41;81.02
54361;BME280;40258;53.936;27.540;2022-10-16T06:01:46;99899.56;;;9.54;80.71
54361;BME280;40258;53.936;27.540;2022-10-16T06:04:15;99893.69;;;9.66;79.42
54361;BME280;40258;53.936;27.540;2022-10-16T06:06:43;99898.22;;;9.70;79.08
54361;BME280;40258;53.936;27.540;2022-10-16T06:09:12;99899.34;;;9.69;78.82
54361;BME280;40258;53.936;27.540;2022-10-16T06:11:41;99912.66;;;9.66;78.48
54361;BME280;40258;53.936;27.540;2022-10-16T06:14:10;99912.94;;;9.64;78.52
54361;BME280;40258;53.936;27.540;2022-10-16T06:16:39;99923.56;;;9.61;78.59
54361;BME280;40258;53.936;27.540;2022-10-16T06:19:08;99917.28;;;9.65;78.81
54361;BME280;40258;53.936;27.540;2022-10-16T06:21:36;99925.50;;;9.60;78.24
54361;BME280;40258;53.936;27.540;2022-10-16T06:24:05;99923.00;;;9.45;78.24
54361;BME280;40258;53.936;27.540;2022-10-16T06:26:34;99933.91;;;9.40;78.40
54361;BME280;40258;53.936;27.540;2022-10-16T06:29:03;99946.72;;;9.53;78.28
54361;BME280;40258;53.936;27.540;2022-10-16T06:31:32;99949.78;;;9.65;77.49
54361;BME280;40258;53.936;27.540;2022-10-16T06:34:01;99951.25;;;9.77;77.01
54361;BME280;40258;53.936;27.540;2022-10-16T06:36:31;99945.06;;;9.90;76.39
54361;BME280;40258;53.936;27.540;2022-10-16T06:39:00;99944.97;;;9.95;76.07
54361;BME280;40258;53.936;27.540;2022-10-16T06:41:28;99943.13;;;10.10;75.53
54361;BME280;40258;53.936;27.540;2022-10-16T06:43:58;99947.06;;;10.17;75.39
54361;BME280;40258;53.936;27.540;2022-10-16T06:46:28;99947.94;;;10.13;74.45
54361;BME280;40258;53.936;27.540;2022-10-16T06:48:56;99950.50;;;10.23;73.98
54361;BME280;40258;53.936;27.540;2022-10-16T06:51:25;99957.44;;;10.29;73.93
54361;BME280;40258;53.936;27.540;2022-10-16T06:53:55;99950.56;;;10.37;73.96
54361;BME280;40258;53.936;27.540;2022-10-16T06:56:27;99947.38;;;10.49;72.98
54361;BME280;40258;53.936;27.540;2022-10-16T06:58:56;99949.28;;;10.62;72.28
54361;BME280;40258;53.936;27.540;2022-10-16T07:01:27;99958.50;;;10.61;71.83
54361;BME280;40258;53.936;27.540;2022-10-16T07:03:55;99948.97;;;10.77;72.09
54361;BME280;40258;53.936;27.540;2022-10-16T07:06:25;99950.38;;;11.03;70.93
54361;BME280;40258;53.936;27.540;2022-10-16T07:08:54;99954.84;;;11.35;69.58
54361;BME280;40258;53.936;27.540;2022-10-16T07:11:24;99955.00;;;11.52;68.63
54361;BME280;40258;53.936;27.540;2022-10-16T07:13:53;99949.72;;;11.70;67.76
54361;BME280;40258;53.936;27.540;2022-10-16T07:16:24;99954.16;;;11.88;67.19
54361;BME280;40258;53.936;27.540;2022-10-16T07:18:55;99956.19;;;11.97;66.79
54361;BME280;40258;53.936;27.540;2022-10-16T07:21:29;99946.91;;;12.20;65.99
54361;BME280;40258;53.936;27.540;2022-10-16T07:23:59;99960.44;;;12.34;65.30
54361;BME280;40258;53.936;27.540;2022-10-16T07:26:34;99958.59;;;12.52;65.05
54361;BME280;40258;53.936;27.540;2022-10-16T07:29:03;99961.84;;;12.32;64.50
54361;BME280;40258;53.936;27.540;2022-10-16T07:31:31;99962.50;;;12.06;65.85
54361;BME280;40258;53.936;27.540;2022-10-16T07:34:02;99956.84;;;12.02;66.48
54361;BME280;40258;53.936;27.540;2022-10-16T07:36:31;99958.13;;;11.82;66.97
54361;BME280;40258;53.936;27.540;2022-10-16T07:39:00;99966.59;;;11.81;66.95
54361;BME280;40258;53.936;27.540;2022-10-16T07:41:28;99964.56;;;11.86;66.42
54361;BME280;40258;53.936;27.540;2022-10-16T07:43:59;99970.34;;;12.08;66.47
54361;BME280;40258;53.936;27.540;2022-10-16T07:46:28;99965.09;;;12.11;66.10
54361;BME280;40258;53.936;27.540;2022-10-16T07:48:57;99982.69;;;12.36;65.51
54361;BME280;40258;53.936;27.540;2022-10-16T07:51:27;99981.66;;;12.55;64.53
54361;BME280;40258;53.936;27.540;2022-10-16T07:53:56;99969.75;;;12.73;64.06
54361;BME280;40258;53.936;27.540;2022-10-16T07:56:25;99979.59;;;13.01;63.16
54361;BME280;40258;53.936;27.540;2022-10-16T07:58:54;99976.91;;;13.18;62.30
54361;BME280;40258;53.936;27.540;2022-10-16T08:01:23;99984.66;;;13.34;61.56
54361;BME280;40258;53.936;27.540;2022-10-16T08:03:52;99989.91;;;13.21;62.11
54361;BME280;40258;53.936;27.540;2022-10-16T08:06:22;99983.25;;;13.45;61.45
54361;BME280;40258;53.936;27.540;2022-10-16T08:08:52;99981.16;;;13.33;61.92
54361;BME280;40258;53.936;27.540;2022-10-16T08:11:21;99978.94;;;13.44;61.75
54361;BME280;40258;53.936;27.540;2022-10-16T08:13:50;99985.69;;;13.46;61.27
54361;BME280;40258;53.936;27.540;2022-10-16T08:16:18;99976.84;;;13.41;61.75
54361;BME280;40258;53.936;27.540;2022-10-16T08:18:47;99984.53;;;13.39;61.13
54361;BME280;40258;53.936;27.540;2022-10-16T08:21:22;99987.44;;;13.60;60.54
54361;BME280;40258;53.936;27.540;2022-10-16T08:23:53;99982.63;;;13.57;60.97
54361;BME280;40258;53.936;27.540;2022-10-16T08:26:21;99988.09;;;13.65;61.35
54361;BME280;40258;53.936;27.540;2022-10-16T08:28:50;99984.84;;;13.46;61.86
54361;BME280;40258;53.936;27.540;2022-10-16T08:31:19;99986.47;;;13.64;61.34
54361;BME280;40258;53.936;27.540;2022-10-16T08:33:47;99985.69;;;13.81;61.40
54361;BME280;40258;53.936;27.540;2022-10-16T08:36:16;99987.13;;;13.96;60.95
54361;BME280;40258;53.936;27.540;2022-10-16T08:38:48;99989.34;;;14.29;60.64
54361;BME280;40258;53.936;27.540;2022-10-16T08:45:26;99992.78;;;14.56;59.13
54361;BME280;40258;53.936;27.540;2022-10-16T08:48:13;99978.50;;;14.68;58.95
54361;BME280;40258;53.936;27.540;2022-10-16T08:50:43;99989.72;;;14.57;59.35
54361;BME280;40258;53.936;27.540;2022-10-16T08:53:18;99981.56;;;14.49;60.13
54361;BME280;40258;53.936;27.540;2022-10-16T08:55:51;99980.25;;;14.72;59.82
54361;BME280;40258;53.936;27.540;2022-10-16T08:58:23;99996.91;;;14.80;59.89
54361;BME280;40258;53.936;27.540;2022-10-16T09:00:55;100001.84;;;14.95;58.98
54361;BME280;40258;53.936;27.540;2022-10-16T09:03:45;99999.84;;;15.13;58.34
54361;BME280;40258;53.936;27.540;2022-10-16T09:06:33;100000.31;;;15.06;58.82
54361;BME280;40258;53.936;27.540;2022-10-16T09:09:34;99999.88;;;15.04;59.11
54361;BME280;40258;53.936;27.540;2022-10-16T09:12:10;100000.31;;;15.06;59.46
54361;BME280;40258;53.936;27.540;2022-10-16T09:15:07;100001.09;;;15.16;59.17
54361;BME280;40258;53.936;27.540;2022-10-16T09:17:52;99996.09;;;15.18;59.00
54361;BME280;40258;53.936;27.540;2022-10-16T09:20:32;99993.06;;;15.10;59.26
54361;BME280;40258;53.936;27.540;2022-10-16T09:23:16;100001.56;;;15.18;59.54
54361;BME280;40258;53.936;27.540;2022-10-16T09:25:47;99995.25;;;15.26;59.19
54361;BME280;40258;53.936;27.540;2022-10-16T09:28:18;99995.44;;;15.21;59.50
54361;BME280;40258;53.936;27.540;2022-10-16T09:30:48;99986.09;;;15.22;59.39
54361;BME280;40258;53.936;27.540;2022-10-16T09:33:20;99998.63;;;15.23;59.17
54361;BME280;40258;53.936;27.540;2022-10-16T09:35:52;99992.88;;;15.16;59.61
54361;BME280;40258;53.936;27.540;2022-10-16T09:38:25;99991.13;;;15.11;59.28
54361;BME280;40258;53.936;27.540;2022-10-16T09:40:55;99989.97;;;15.21;58.97
54361;BME280;40258;53.936;27.540;2022-10-16T09:43:27;99992.78;;;15.33;58.99
54361;BME280;40258;53.936;27.540;2022-10-16T09:46:01;99989.38;;;15.36;58.49
54361;BME280;40258;53.936;27.540;2022-10-16T09:48:36;99990.63;;;15.18;58.77
54361;BME280;40258;53.936;27.540;2022-10-16T09:51:16;99984.22;;;15.14;59.07
54361;BME280;40258;53.936;27.540;2022-10-16T09:53:47;99998.63;;;15.23;58.84
54361;BME280;40258;53.936;27.540;2022-10-16T09:56:23;99983.53;;;15.46;58.38
54361;BME280;40258;53.936;27.540;2022-10-16T09:58:54;99990.59;;;15.48;58.12
54361;BME280;40258;53.936;27.540;2022-10-16T10:01:31;99992.50;;;15.26;58.96
54361;BME280;40258;53.936;27.540;2022-10-16T10:04:04;99985.34;;;15.13;59.52
54361;BME280;40258;53.936;27.540;2022-10-16T10:06:36;99991.00;;;15.07;59.94
54361;BME280;40258;53.936;27.540;2022-10-16T10:09:18;100004.25;;;14.97;59.83
54361;BME280;40258;53.936;27.540;2022-10-16T10:11:53;99994.44;;;14.96;60.41
54361;BME280;40258;53.936;27.540;2022-10-16T10:14:29;99998.44;;;14.98;59.97
54361;BME280;40258;53.936;27.540;2022-10-16T10:17:16;99989.78;;;14.96;60.53
54361;BME280;40258;53.936;27.540;2022-10-16T10:19:49;99988.06;;;14.83;60.12
54361;BME280;40258;53.936;27.540;2022-10-16T10:22:26;99980.81;;;14.87;60.64
54361;BME280;40258;53.936;27.540;2022-10-16T10:28:18;99979.97;;;14.95;59.92
54361;BME280;40258;53.936;27.540;2022-10-16T10:30:59;99982.00;;;15.07;60.06
54361;BME280;40258;53.936;27.540;2022-10-16T10:33:40;99982.03;;;14.98;59.43
54361;BME280;40258;53.936;27.540;2022-10-16T10:36:40;99990.22;;;15.07;59.72
54361;BME280;40258;53.936;27.540;2022-10-16T10:39:15;99986.09;;;15.22;58.87
54361;BME280;40258;53.936;27.540;2022-10-16T10:42:21;99987.72;;;15.23;58.86
54361;BME280;40258;53.936;27.540;2022-10-16T10:45:13;99992.94;;;15.37;58.24
54361;BME280;40258;53.936;27.540;2022-10-16T10:50:48;99984.56;;;15.33;58.82
54361;BME280;40258;53.936;27.540;2022-10-16T10:53:29;99988.47;;;15.32;58.21
54361;BME280;40258;53.936;27.540;2022-10-16T10:56:14;99976.66;;;15.40;58.49
54361;BME280;40258;53.936;27.540;2022-10-16T10:59:02;99981.25;;;15.49;58.48
54361;BME280;40258;53.936;27.540;2022-10-16T11:01:44;99974.31;;;15.51;57.51
54361;BME280;40258;53.936;27.540;2022-10-16T11:04:54;99973.00;;;15.57;57.83
54361;BME280;40258;53.936;27.540;2022-10-16T11:07:32;99976.41;;;15.75;56.72
54361;BME280;40258;53.936;27.540;2022-10-16T11:10:08;99973.59;;;15.63;57.62
54361;BME280;40258;53.936;27.540;2022-10-16T11:12:42;99972.69;;;15.80;57.01
54361;BME280;40258;53.936;27.540;2022-10-16T11:15:17;99980.91;;;16.13;56.24
54361;BME280;40258;53.936;27.540;2022-10-16T11:17:51;99972.53;;;16.43;55.42
54361;BME280;40258;53.936;27.540;2022-10-16T11:20:24;99971.22;;;16.62;54.49
54361;BME280;40258;53.936;27.540;2022-10-16T11:22:59;99981.50;;;16.77;54.31
54361;BME280;40258;53.936;27.540;2022-10-16T11:25:30;99979.00;;;16.72;54.06
54361;BME280;40258;53.936;27.540;2022-10-16T11:28:06;99966.56;;;16.87;53.38
54361;BME280;40258;53.936;27.540;2022-10-16T11:30:44;99966.56;;;17.12;53.11
54361;BME280;40258;53.936;27.540;2022-10-16T11:33:29;99966.91;;;17.10;52.54
54361;BME280;40258;53.936;27.540;2022-10-16T11:36:09;99963.25;;;17.18;52.16
54361;BME280;40258;53.936;27.540;2022-10-16T11:38:48;99954.31;;;17.21;52.36
54361;BME280;40258;53.936;27.540;2022-10-16T11:41:27;99955.03;;;17.06;51.86
54361;BME280;40258;53.936;27.540;2022-10-16T11:44:12;99951.84;;;16.92;53.15
54361;BME280;40258;53.936;27.540;2022-10-16T11:46:48;99954.94;;;17.02;53.04
54361;BME280;40258;53.936;27.540;2022-10-16T11:49:21;99956.97;;;16.93;53.03
54361;BME280;40258;53.936;27.540;2022-10-16T11:51:58;99947.38;;;17.12;52.39
54361;BME280;40258;53.936;27.540;2022-10-16T11:54:39;99947.97;;;17.05;52.34
54361;BME280;40258;53.936;27.540;2022-10-16T11:57:15;99942.13;;;17.19;52.37
54361;BME280;40258;53.936;27.540;2022-10-16T11:59:48;99941.09;;;17.23;51.42
54361;BME280;40258;53.936;27.540;2022-10-16T12:02:40;99949.34;;;16.99;52.15
54361;BME280;40258;53.936;27.540;2022-10-16T12:05:23;99938.09;;;16.67;52.41
54361;BME280;40258;53.936;27.540;2022-10-16T12:08:04;99927.00;;;16.39;53.24
54361;BME280;40258;53.936;27.540;2022-10-16T12:10:37;99933.06;;;16.32;54.00
54361;BME280;40258;53.936;27.540;2022-10-16T12:13:31;99936.13;;;16.30;53.83
54361;BME280;40258;53.936;27.540;2022-10-16T12:16:21;99931.22;;;16.24;54.35
54361;BME280;40258;53.936;27.540;2022-10-16T12:19:11;99931.22;;;16.24;54.07
54361;BME280;40258;53.936;27.540;2022-10-16T12:21:40;99943.94;;;16.07;54.11
54361;BME280;40258;53.936;27.540;2022-10-16T12:24:23;99945.78;;;16.15;54.87
54361;BME280;40258;53.936;27.540;2022-10-16T12:26:57;99948.31;;;16.21;54.68
54361;BME280;40258;53.936;27.540;2022-10-16T12:29:33;99951.13;;;16.12;54.43
54361;BME280;40258;53.936;27.540;2022-10-16T12:32:03;99954.38;;;15.93;55.49
54361;BME280;40258;53.936;27.540;2022-10-16T12:34:39;99938.88;;;15.76;55.45
54361;BME280;40258;53.936;27.540;2022-10-16T12:37:14;99946.78;;;15.77;55.21
54361;BME280;40258;53.936;27.540;2022-10-16T12:39:48;99931.41;;;15.64;56.18
54361;BME280;40258;53.936;27.540;2022-10-16T12:42:34;99940.66;;;15.80;55.93
54361;BME280;40258;53.936;27.540;2022-10-16T12:45:27;99952.78;;;15.92;55.64
54361;BME280;40258;53.936;27.540;2022-10-16T12:47:56;99951.69;;;16.05;54.89
54361;BME280;40258;53.936;27.540;2022-10-16T12:50:33;99956.22;;;16.01;55.63
54361;BME280;40258;53.936;27.540;2022-10-16T12:53:15;99953.09;;;16.11;55.03
54361;BME280;40258;53.936;27.540;2022-10-16T12:55:56;99952.09;;;15.95;54.97
54361;BME280;40258;53.936;27.540;2022-10-16T12:59:01;99950.94;;;15.84;55.84
54361;BME280;40258;53.936;27.540;2022-10-16T13:01:45;99950.16;;;15.95;55.23
54361;BME280;40258;53.936;27.540;2022-10-16T13:04:41;99951.16;;;15.91;55.50
54361;BME280;40258;53.936;27.540;2022-10-16T13:07:34;99947.44;;;15.74;55.29
54361;BME280;40258;53.936;27.540;2022-10-16T13:10:19;99943.75;;;15.70;55.44
54361;BME280;40258;53.936;27.540;2022-10-16T13:13:13;99950.03;;;15.50;55.69
54361;BME280;40258;53.936;27.540;2022-10-16T13:15:59;99948.91;;;15.51;55.85
54361;BME280;40258;53.936;27.540;2022-10-16T13:18:43;99949.03;;;15.33;56.32
54361;BME280;40258;53.936;27.540;2022-10-16T13:21:30;99944.84;;;15.36;55.95
54361;BME280;40258;53.936;27.540;2022-10-16T13:24:11;99935.63;;;15.40;55.88
54361;BME280;40258;53.936;27.540;2022-10-16T13:26:52;99936.50;;;15.32;55.22
54361;BME280;40258;53.936;27.540;2022-10-16T13:29:23;99922.47;;;15.13;55.91
54361;BME280;40258;53.936;27.540;2022-10-16T13:31:53;99927.44;;;15.19;55.83
54361;BME280;40258;53.936;27.540;2022-10-16T13:34:22;99921.44;;;15.26;55.48
54361;BME280;40258;53.936;27.540;2022-10-16T13:36:52;99925.28;;;15.25;55.36
54361;BME280;40258;53.936;27.540;2022-10-16T13:39:23;99922.47;;;15.13;55.53